Time;durP1;ratioP1;P1;durP2;ratioP2;P2;SDS_P1;SDS_P2;PMS_P1;PMS_P2;Temp;Humidity;BMP_temperature;BMP_pressure;BME280_temperature;BME280_humidity;BME280_pressure;Samples;Min_cycle;Max_cycle;Signal;HPM_P1;HPM_P2
2022/04/19 00:00:48;;;;;;;85.13;56.45;;;19.50;51.90;;;;;;4938917;28;90883;-38
2022/04/19 00:03:15;;;;;;;83.85;56.13;;;19.50;51.90;;;;;;4943865;28;89896;-38
2022/04/19 00:05:41;;;;;;;86.80;57.80;;;19.50;52.00;;;;;;4939270;28;90034;-37
2022/04/19 00:08:08;;;;;;;87.68;56.78;;;19.50;52.00;;;;;;4965278;28;90927;-39
2022/04/19 00:10:34;;;;;;;85.03;57.17;;;19.50;52.00;;;;;;4948617;28;90370;-36
2022/04/19 00:13:02;;;;;;;90.13;58.97;;;19.50;52.50;;;;;;4955403;28;94192;-38
2022/04/19 00:15:29;;;;;;;87.50;57.88;;;19.50;52.00;;;;;;4942186;28;91991;-36
2022/04/19 00:17:56;;;;;;;86.25;57.28;;;19.50;52.00;;;;;;4938361;28;92135;-38
2022/04/19 00:20:23;;;;;;;86.78;57.92;;;19.50;52.00;;;;;;4941168;28;91460;-39
2022/04/19 00:22:49;;;;;;;84.93;56.72;;;19.50;52.00;;;;;;4948716;28;89700;-39
2022/04/19 00:25:15;;;;;;;85.95;57.70;;;19.50;52.60;;;;;;4944172;28;90212;-38
2022/04/19 00:27:41;;;;;;;88.32;58.20;;;19.50;52.00;;;;;;4945500;28;90937;-35
2022/04/19 00:30:07;;;;;;;87.93;57.78;;;19.50;52.00;;;;;;4946655;28;89955;-39
2022/04/19 00:32:34;;;;;;;86.93;58.60;;;19.50;52.00;;;;;;4944729;28;91730;-37
2022/04/19 00:35:00;;;;;;;88.70;58.30;;;19.50;52.00;;;;;;4952696;28;88958;-36
2022/04/19 00:37:26;;;;;;;86.57;57.08;;;19.40;51.90;;;;;;4942920;28;94205;-41
2022/04/19 00:39:53;;;;;;;84.85;57.00;;;19.40;52.00;;;;;;4946212;28;90444;-38
2022/04/19 00:42:19;;;;;;;88.50;58.05;;;19.40;52.10;;;;;;4940562;28;91555;-39
2022/04/19 00:44:44;;;;;;;86.70;57.88;;;19.40;52.00;;;;;;4940148;28;90187;-38
2022/04/19 00:47:11;;;;;;;84.88;56.92;;;19.40;52.10;;;;;;4935138;28;90066;-41
2022/04/19 00:49:42;;;;;;;85.80;56.92;;;19.40;52.10;;;;;;4936054;28;95640;-37
2022/04/19 00:52:08;;;;;;;84.63;57.05;;;19.40;52.10;;;;;;4944006;28;90187;-38
2022/04/19 00:54:34;;;;;;;86.10;58.15;;;19.40;52.10;;;;;;4944598;28;89506;-37
2022/04/19 00:57:01;;;;;;;85.35;56.65;;;19.40;52.10;;;;;;4940984;28;90118;-34
2022/04/19 00:59:27;;;;;;;85.78;57.70;;;19.40;52.10;;;;;;4948291;28;96352;-39
2022/04/19 01:01:52;;;;;;;84.18;56.40;;;19.40;52.10;;;;;;4947099;28;90198;-39
2022/04/19 01:04:18;;;;;;;85.95;57.40;;;19.40;52.20;;;;;;4947549;28;90710;-36
2022/04/19 01:06:45;;;;;;;85.80;57.60;;;19.40;52.20;;;;;;4942942;28;92640;-35
2022/04/19 01:09:11;;;;;;;85.25;56.85;;;19.30;52.20;;;;;;4953167;28;90979;-37
2022/04/19 01:14:23;;;;;;;85.57;57.08;;;19.30;52.20;;;;;;4944829;28;90759;-35
2022/04/19 01:16:49;;;;;;;85.13;56.90;;;19.30;52.20;;;;;;4944112;28;91555;-36
2022/04/19 01:19:15;;;;;;;84.22;56.35;;;19.30;52.20;;;;;;4936122;28;91111;-37
2022/04/19 01:21:48;;;;;;;87.28;58.17;;;19.30;52.30;;;;;;4937657;28;89995;-35
2022/04/19 01:24:15;;;;;;;86.15;58.10;;;19.30;52.30;;;;;;4945826;28;89291;-39
2022/04/19 01:26:41;;;;;;;85.70;57.50;;;19.30;52.30;;;;;;4945210;28;90033;-38
2022/04/19 01:29:08;;;;;;;86.22;57.38;;;19.30;52.30;;;;;;4944175;28;90031;-41
2022/04/19 01:31:34;;;;;;;87.40;57.53;;;19.30;52.30;;;;;;4941557;28;91097;-36
2022/04/19 01:34:01;;;;;;;84.18;57.45;;;19.30;52.30;;;;;;4944467;28;89679;-35
2022/04/19 01:36:26;;;;;;;85.28;57.78;;;19.30;52.30;;;;;;4937125;28;96809;-37
2022/04/19 01:38:52;;;;;;;86.35;57.67;;;19.30;52.40;;;;;;4945407;28;90060;-34
2022/04/19 01:41:18;;;;;;;84.72;57.42;;;19.20;52.30;;;;;;4941840;28;90296;-38
2022/04/19 01:43:44;;;;;;;86.40;57.97;;;19.20;52.30;;;;;;4938890;28;90381;-40
2022/04/19 01:46:11;;;;;;;85.05;57.20;;;19.20;52.40;;;;;;4949335;28;90043;-40
2022/04/19 01:48:36;;;;;;;85.55;57.95;;;19.20;52.30;;;;;;4941366;28;95968;-37
2022/04/19 01:51:02;;;;;;;86.47;57.95;;;19.20;52.40;;;;;;4937868;28;89696;-39
2022/04/19 01:53:28;;;;;;;85.32;57.20;;;19.20;52.40;;;;;;4945426;28;90176;-38
2022/04/19 01:55:55;;;;;;;87.38;58.22;;;19.20;52.40;;;;;;4946543;28;91959;-38
2022/04/19 01:58:21;;;;;;;87.47;58.30;;;19.20;52.40;;;;;;4950069;28;90405;-38
2022/04/19 02:00:46;;;;;;;84.10;56.78;;;19.20;52.40;;;;;;4948662;28;90012;-36
2022/04/19 02:03:12;;;;;;;85.85;57.50;;;19.20;52.50;;;;;;4945622;28;89792;-37
2022/04/19 02:05:37;;;;;;;88.45;59.25;;;19.20;52.50;;;;;;4938662;28;89999;-35
2022/04/19 02:08:03;;;;;;;85.78;57.70;;;19.20;52.50;;;;;;4949523;28;90674;-38
2022/04/19 02:10:29;;;;;;;86.32;57.88;;;19.10;52.50;;;;;;4947298;28;89803;-36
2022/04/19 02:12:55;;;;;;;84.07;57.13;;;19.20;52.50;;;;;;4939980;28;89160;-38
2022/04/19 02:15:20;;;;;;;86.05;58.25;;;19.10;52.50;;;;;;4949720;28;90911;-38
2022/04/19 02:17:48;;;;;;;86.80;58.08;;;19.10;52.50;;;;;;4945158;28;90373;-37
2022/04/19 02:20:16;;;;;;;85.78;57.67;;;19.10;52.50;;;;;;4946073;28;91346;-37
2022/04/19 02:22:42;;;;;;;87.47;58.75;;;19.10;52.60;;;;;;4949412;28;89920;-39
2022/04/19 02:25:09;;;;;;;85.88;57.88;;;19.10;52.50;;;;;;4952124;28;90384;-36
2022/04/19 02:27:35;;;;;;;86.40;58.63;;;19.10;52.60;;;;;;4950537;28;90698;-37
2022/04/19 02:30:05;;;;;;;85.25;57.60;;;19.10;52.60;;;;;;4948227;28;89952;-42
2022/04/19 02:32:33;;;;;;;85.47;57.28;;;19.10;52.60;;;;;;4945612;28;91869;-37
2022/04/19 02:34:59;;;;;;;91.22;60.63;;;19.10;52.60;;;;;;4942645;28;89855;-36
2022/04/19 02:37:25;;;;;;;86.43;58.33;;;19.10;52.70;;;;;;4944978;28;90678;-35
2022/04/19 02:39:51;;;;;;;88.65;58.90;;;19.10;52.70;;;;;;4952075;28;91898;-39
2022/04/19 02:42:17;;;;;;;88.28;58.97;;;19.10;52.70;;;;;;4950407;28;89837;-38
2022/04/19 02:44:43;;;;;;;85.68;58.55;;;19.10;52.70;;;;;;4951672;28;90927;-39
2022/04/19 02:47:09;;;;;;;88.38;59.55;;;19.10;52.70;;;;;;4947369;28;91997;-40
2022/04/19 02:49:36;;;;;;;88.57;59.80;;;19.00;52.70;;;;;;4942493;28;90000;-36
2022/04/19 02:52:03;;;;;;;86.43;58.40;;;19.00;52.70;;;;;;4948316;28;90034;-34
2022/04/19 02:54:29;;;;;;;86.60;58.55;;;19.00;52.70;;;;;;4948854;28;90603;-35
2022/04/19 02:56:54;;;;;;;88.53;59.15;;;19.00;53.30;;;;;;4946988;28;89937;-36
2022/04/19 02:59:20;;;;;;;86.65;57.92;;;19.00;52.80;;;;;;4947433;28;89679;-36
2022/04/19 03:01:46;;;;;;;88.43;59.58;;;19.00;52.80;;;;;;4948127;28;89764;-39
2022/04/19 03:04:11;;;;;;;87.55;58.50;;;19.00;52.80;;;;;;4942892;28;90130;-38
2022/04/19 03:06:37;;;;;;;87.35;58.25;;;19.00;52.80;;;;;;4941919;28;90420;-37
2022/04/19 03:09:03;;;;;;;86.20;58.72;;;19.00;52.90;;;;;;4945666;28;92182;-35
2022/04/19 03:11:28;;;;;;;87.07;58.53;;;18.90;52.90;;;;;;4944554;28;89992;-37
2022/04/19 03:13:55;;;;;;;85.70;57.42;;;18.90;52.90;;;;;;4949104;28;90521;-38
2022/04/19 03:16:21;;;;;;;89.28;60.13;;;18.90;52.90;;;;;;4949979;28;90963;-37
2022/04/19 03:18:47;;;;;;;87.03;58.78;;;18.90;52.90;;;;;;4943154;28;90097;-39
2022/04/19 03:21:13;;;;;;;87.35;58.65;;;18.90;52.90;;;;;;4948984;28;91807;-40
2022/04/19 03:29:10;;;;;;;87.07;59.30;;;18.90;52.90;;;;;;4948872;28;90098;-36
2022/04/19 03:31:36;;;;;;;87.57;59.67;;;18.90;53.00;;;;;;4942435;28;90332;-40
2022/04/19 03:34:03;;;;;;;89.47;59.70;;;18.80;53.00;;;;;;4942634;28;91089;-37
2022/04/19 03:36:29;;;;;;;88.95;60.13;;;18.80;53.00;;;;;;4948194;28;91696;-39
2022/04/19 03:38:55;;;;;;;89.38;60.08;;;18.80;53.00;;;;;;4939716;28;89536;-37
2022/04/19 03:41:21;;;;;;;87.13;59.03;;;18.80;53.00;;;;;;4944569;28;94800;-35
2022/04/19 03:43:47;;;;;;;87.40;59.42;;;18.80;53.00;;;;;;4946222;28;89925;-38
2022/04/19 03:46:13;;;;;;;88.72;59.83;;;18.80;53.00;;;;;;4949449;28;89854;-38
2022/04/19 03:48:38;;;;;;;88.22;59.03;;;18.80;53.00;;;;;;4944742;28;89689;-37
2022/04/19 03:51:04;;;;;;;86.95;58.67;;;18.80;53.00;;;;;;4937995;28;89031;-38
2022/04/19 03:53:32;;;;;;;88.45;58.50;;;18.80;53.10;;;;;;4949692;28;94180;-38
2022/04/19 03:56:03;;;;;;;87.97;58.80;;;18.70;53.00;;;;;;4945284;28;95178;-35
2022/04/19 03:58:32;;;;;;;86.60;58.05;;;18.70;53.10;;;;;;4947448;28;91157;-35
2022/04/19 04:00:58;;;;;;;88.18;60.00;;;18.70;53.10;;;;;;4944391;28;94805;-36
2022/04/19 04:03:24;;;;;;;84.72;58.20;;;18.70;53.10;;;;;;4936095;28;90592;-39
2022/04/19 04:05:50;;;;;;;88.80;59.47;;;18.70;53.10;;;;;;4945877;28;90103;-38
2022/04/19 04:08:16;;;;;;;87.25;58.63;;;18.70;53.10;;;;;;4940806;28;91403;-38
2022/04/19 04:10:42;;;;;;;88.15;59.72;;;18.70;53.10;;;;;;4949047;28;89801;-38
2022/04/19 04:13:09;;;;;;;86.85;58.88;;;18.70;53.10;;;;;;4942147;28;90450;-37
2022/04/19 04:15:35;;;;;;;86.93;58.83;;;18.70;53.20;;;;;;4953627;28;89942;-40
2022/04/19 04:18:01;;;;;;;88.25;59.92;;;18.70;53.20;;;;;;4944982;28;92935;-40
2022/04/19 04:20:26;;;;;;;88.40;58.90;;;18.70;53.20;;;;;;4943575;28;90124;-36
2022/04/19 04:22:52;;;;;;;90.03;61.00;;;18.70;53.20;;;;;;4942437;28;91231;-37
2022/04/19 04:25:18;;;;;;;88.28;58.67;;;18.70;53.20;;;;;;4943642;28;91410;-39
2022/04/19 04:27:43;;;;;;;87.72;59.65;;;18.60;53.20;;;;;;4944125;28;89794;-37
2022/04/19 04:30:09;;;;;;;87.25;59.97;;;18.60;53.20;;;;;;4955004;28;90926;-37
2022/04/19 04:32:35;;;;;;;90.00;60.60;;;18.60;53.10;;;;;;4944784;28;90266;-35
2022/04/19 04:35:00;;;;;;;89.38;60.58;;;18.60;53.20;;;;;;4938478;28;90016;-39
2022/04/19 04:37:26;;;;;;;87.47;59.22;;;18.60;53.20;;;;;;4950665;28;89803;-36
2022/04/19 04:39:52;;;;;;;90.28;62.00;;;18.60;53.10;;;;;;4940847;28;90326;-34
2022/04/19 04:42:18;;;;;;;88.72;60.47;;;18.60;53.20;;;;;;4941234;28;93643;-37
2022/04/19 04:44:43;;;;;;;90.05;60.67;;;18.60;53.20;;;;;;4948943;28;90398;-40
2022/04/19 04:49:58;;;;;;;89.60;61.03;;;18.60;53.20;;;;;;4946284;28;90459;-40
2022/04/19 04:52:23;;;;;;;89.07;60.55;;;18.60;53.10;;;;;;4945232;28;91286;-36
2022/04/19 04:54:49;;;;;;;90.35;61.08;;;18.50;53.20;;;;;;4952270;28;90212;-38
2022/04/19 04:57:14;;;;;;;89.55;60.30;;;18.50;53.10;;;;;;4949378;28;90979;-36
2022/04/19 04:59:40;;;;;;;88.55;60.65;;;18.50;53.10;;;;;;4949478;28;89710;-38
2022/04/19 05:02:06;;;;;;;89.30;61.17;;;18.50;53.10;;;;;;4943667;28;90483;-39
2022/04/19 05:04:35;;;;;;;86.68;58.58;;;18.50;53.10;;;;;;4941222;28;96870;-38
2022/04/19 05:07:02;;;;;;;90.03;61.03;;;18.50;53.20;;;;;;4949114;28;89955;-39
2022/04/19 05:09:27;;;;;;;88.18;60.38;;;18.50;53.30;;;;;;4949234;28;91228;-35
2022/04/19 05:11:53;;;;;;;91.75;61.50;;;18.50;53.20;;;;;;4947715;28;91263;-36
2022/04/19 05:14:19;;;;;;;86.88;59.65;;;18.50;53.40;;;;;;4951238;28;90332;-38
2022/04/19 05:16:45;;;;;;;88.78;60.33;;;18.50;53.60;;;;;;4951066;28;90089;-39
2022/04/19 05:19:11;;;;;;;90.80;60.20;;;18.50;53.60;;;;;;4939349;28;96479;-36
2022/04/19 05:21:38;;;;;;;88.78;60.25;;;18.40;53.70;;;;;;4941959;28;91015;-39
2022/04/19 05:24:05;;;;;;;87.60;59.22;;;18.40;53.80;;;;;;4944681;28;89908;-39
2022/04/19 05:26:30;;;;;;;90.63;61.00;;;18.40;54.00;;;;;;4950987;28;89776;-40
2022/04/19 05:28:56;;;;;;;90.82;60.63;;;18.50;54.10;;;;;;4947024;28;89249;-37
2022/04/19 05:31:23;;;;;;;92.38;59.58;;;18.50;54.00;;;;;;4937305;28;91630;-39
2022/04/19 05:33:49;;;;;;;94.13;60.53;;;18.40;54.20;;;;;;4944532;28;90053;-38
2022/04/19 05:36:15;;;;;;;90.55;59.78;;;18.40;54.30;;;;;;4938740;28;91005;-36
2022/04/19 05:38:41;;;;;;;90.20;60.83;;;18.40;54.30;;;;;;4939781;28;90171;-39
2022/04/19 05:41:07;;;;;;;97.28;60.95;;;18.40;54.30;;;;;;4938355;28;90870;-39
2022/04/19 05:43:32;;;;;;;94.68;60.75;;;18.40;54.50;;;;;;4938915;28;90008;-37
2022/04/19 05:45:58;;;;;;;94.35;61.03;;;18.40;54.40;;;;;;4934295;28;90056;-35
2022/04/19 05:48:26;;;;;;;92.07;59.75;;;18.40;54.60;;;;;;4945128;28;92076;-35
2022/04/19 05:50:52;;;;;;;93.55;59.40;;;18.40;54.50;;;;;;4944861;28;90419;-35
2022/04/19 05:53:19;;;;;;;92.88;59.83;;;18.40;54.50;;;;;;4945952;28;89262;-38
2022/04/19 05:55:45;;;;;;;93.20;59.78;;;18.40;54.60;;;;;;4943928;28;90048;-38
2022/04/19 05:58:10;;;;;;;93.18;60.58;;;18.40;54.60;;;;;;4936267;28;90934;-37
2022/04/19 06:00:36;;;;;;;97.53;60.63;;;18.40;54.60;;;;;;4928631;28;91238;-39
2022/04/19 06:05:46;;;;;;;98.05;60.67;;;18.40;54.40;;;;;;4938971;28;89835;-38
2022/04/19 06:08:12;;;;;;;91.00;60.00;;;18.40;54.30;;;;;;4946837;28;91421;-38
2022/04/19 06:10:38;;;;;;;97.57;59.80;;;18.40;54.40;;;;;;4939744;28;90069;-37
2022/04/19 06:13:04;;;;;;;96.40;61.20;;;18.40;54.40;;;;;;4948933;28;91026;-38
2022/04/19 06:15:31;;;;;;;91.80;60.20;;;18.40;54.60;;;;;;4944062;28;91620;-39
2022/04/19 06:17:57;;;;;;;92.80;58.30;;;18.40;54.40;;;;;;4947139;28;90114;-36
2022/04/19 06:20:22;;;;;;;96.22;59.15;;;18.40;55.10;;;;;;4945650;28;90143;-41
2022/04/19 06:22:48;;;;;;;91.47;59.97;;;18.40;54.50;;;;;;4940221;28;91218;-38
2022/04/19 06:25:14;;;;;;;93.35;60.45;;;18.40;54.40;;;;;;4942071;28;93114;-39
2022/04/19 06:27:39;;;;;;;91.32;59.78;;;18.40;54.50;;;;;;4953038;28;90157;-38
2022/04/19 06:30:06;;;;;;;91.07;59.65;;;18.40;54.40;;;;;;4946907;28;92113;-38
2022/04/19 06:32:31;;;;;;;90.47;59.28;;;18.40;54.30;;;;;;4950121;28;90095;-36
2022/04/19 06:34:57;;;;;;;95.78;60.15;;;18.40;54.30;;;;;;4950003;28;91611;-37
2022/04/19 06:37:23;;;;;;;89.97;58.90;;;18.40;54.30;;;;;;4950232;28;90190;-35
2022/04/19 06:39:49;;;;;;;94.32;59.83;;;18.40;54.40;;;;;;4952185;28;89861;-37
2022/04/19 06:42:15;;;;;;;93.82;61.50;;;18.40;54.30;;;;;;4948090;28;89068;-37
2022/04/19 06:44:41;;;;;;;91.07;59.83;;;18.50;54.30;;;;;;4949694;28;95914;-41
2022/04/19 06:47:07;;;;;;;93.68;61.88;;;18.50;54.20;;;;;;4951091;28;89999;-41
2022/04/19 06:49:33;;;;;;;94.57;61.00;;;18.50;54.30;;;;;;4944519;28;91011;-42
2022/04/19 06:51:59;;;;;;;89.53;59.95;;;18.40;54.00;;;;;;4944175;28;91204;-40
2022/04/19 06:54:25;;;;;;;91.55;60.28;;;18.40;54.00;;;;;;4954917;28;90105;-37
2022/04/19 06:56:50;;;;;;;92.82;60.63;;;18.50;54.10;;;;;;4946659;28;89584;-40
2022/04/19 06:59:16;;;;;;;90.45;60.65;;;18.50;54.60;;;;;;4950910;28;91090;-39
2022/04/19 07:01:43;;;;;;;94.60;61.42;;;18.50;53.90;;;;;;4951400;28;91946;-38
2022/04/19 07:04:09;;;;;;;90.80;61.08;;;18.40;53.70;;;;;;4957227;28;89861;-41
2022/04/19 07:06:35;;;;;;;91.45;61.38;;;18.50;53.90;;;;;;4952906;28;89287;-42
2022/04/19 07:09:01;;;;;;;89.57;59.60;;;18.40;53.80;;;;;;4944621;28;90199;-40
2022/04/19 07:11:27;;;;;;;89.03;59.47;;;18.50;53.90;;;;;;4944412;28;90814;-41
2022/04/19 07:13:53;;;;;;;88.03;59.33;;;18.50;54.00;;;;;;4942815;28;91270;-41
2022/04/19 07:16:19;;;;;;;90.68;61.17;;;18.50;54.10;;;;;;4945444;28;91083;-38
2022/04/19 07:18:44;;;;;;;94.65;60.20;;;18.50;54.00;;;;;;4945323;28;89477;-42
2022/04/19 07:26:40;;;;;;;91.80;59.72;;;18.50;54.10;;;;;;4946709;28;90059;-40
2022/04/19 07:29:07;;;;;;;88.50;59.50;;;18.50;54.00;;;;;;4949732;28;90981;-39
2022/04/19 07:31:34;;;;;;;88.82;58.42;;;18.50;54.10;;;;;;4936169;28;89796;-40
2022/04/19 07:34:00;;;;;;;89.13;59.20;;;18.50;54.40;;;;;;4949125;28;89977;-42
2022/04/19 07:36:26;;;;;;;89.40;58.65;;;18.60;54.20;;;;;;4950603;28;89705;-42
2022/04/19 07:38:52;;;;;;;89.65;59.28;;;18.60;54.30;;;;;;4949490;28;91327;-38
2022/04/19 07:41:18;;;;;;;93.13;61.75;;;18.60;54.30;;;;;;4949091;28;90768;-40
2022/04/19 07:43:47;;;;;;;90.25;59.47;;;18.60;54.20;;;;;;4952503;28;90129;-39
2022/04/19 07:46:15;;;;;;;88.72;58.92;;;18.60;54.20;;;;;;4946335;28;89827;-39
2022/04/19 07:48:42;;;;;;;89.45;58.17;;;18.60;54.10;;;;;;4957127;28;89414;-41
2022/04/19 07:51:08;;;;;;;90.90;57.88;;;18.60;54.00;;;;;;4945942;28;90580;-39
2022/04/19 07:53:34;;;;;;;86.88;58.15;;;18.60;54.00;;;;;;4947132;28;89985;-39
2022/04/19 07:55:59;;;;;;;91.38;59.10;;;18.60;53.90;;;;;;4946439;28;89518;-38
2022/04/19 07:58:25;;;;;;;89.85;58.15;;;18.60;54.00;;;;;;4947415;28;91122;-42
2022/04/19 08:00:50;;;;;;;89.15;59.28;;;18.60;54.00;;;;;;4943261;28;89854;-40
2022/04/19 08:03:16;;;;;;;87.95;58.28;;;18.60;53.80;;;;;;4947878;28;91009;-39
2022/04/19 08:05:42;;;;;;;89.80;58.45;;;18.60;53.90;;;;;;4955681;28;89833;-36
2022/04/19 08:08:08;;;;;;;88.75;59.55;;;18.60;54.10;;;;;;4940891;28;90364;-41
2022/04/19 08:10:33;;;;;;;94.47;62.13;;;18.70;54.00;;;;;;4950627;28;93257;-40
2022/04/19 08:13:00;;;;;;;89.43;58.80;;;18.70;54.00;;;;;;4945366;28;89927;-38
2022/04/19 08:15:26;;;;;;;87.93;58.45;;;18.60;54.00;;;;;;4944969;28;89857;-39
2022/04/19 08:17:52;;;;;;;93.63;61.15;;;18.70;54.00;;;;;;4938485;28;96223;-41
2022/04/19 08:20:18;;;;;;;93.00;61.95;;;18.70;54.00;;;;;;4946054;28;89860;-41
2022/04/19 08:22:44;;;;;;;90.60;59.60;;;18.70;53.90;;;;;;4942614;28;90063;-40
2022/04/19 08:25:10;;;;;;;89.80;57.75;;;18.70;54.00;;;;;;4940482;28;91031;-38
2022/04/19 08:27:42;;;;;;;88.75;59.08;;;18.70;54.30;;;;;;4944668;28;90960;-41
2022/04/19 08:30:09;;;;;;;89.82;57.47;;;18.80;54.30;;;;;;4943063;28;90354;-39
2022/04/19 08:32:35;;;;;;;91.50;58.50;;;18.70;54.50;;;;;;4942515;28;90870;-41
2022/04/19 08:35:01;;;;;;;89.13;59.65;;;18.70;54.60;;;;;;4950364;28;89935;-41
2022/04/19 08:37:34;;;;;;;90.05;59.92;;;18.70;54.20;;;;;;4944371;28;90281;-41
2022/04/19 08:40:00;;;;;;;88.32;58.60;;;18.80;54.60;;;;;;4949080;28;90407;-39
2022/04/19 08:42:29;;;;;;;89.65;58.72;;;18.80;54.90;;;;;;4948843;28;89909;-39
2022/04/19 08:44:57;;;;;;;94.80;60.78;;;18.80;54.90;;;;;;4946303;28;90378;-41
2022/04/19 08:47:24;;;;;;;92.88;58.78;;;18.80;54.60;;;;;;4945714;28;90856;-38
2022/04/19 08:49:54;;;;;;;85.57;56.83;;;18.80;55.20;;;;;;4946264;28;91209;-38
2022/04/19 08:52:20;;;;;;;89.70;58.42;;;18.80;55.40;;;;;;4949190;28;91757;-37
2022/04/19 08:57:32;;;;;;;92.30;59.20;;;18.90;55.70;;;;;;4950658;28;92262;-38
2022/04/19 09:00:05;;;;;;;91.78;58.90;;;18.90;55.80;;;;;;4953151;28;90429;-40
2022/04/19 09:02:32;;;;;;;91.00;59.20;;;18.90;55.60;;;;;;4951613;28;89831;-38
2022/04/19 09:05:17;;;;;;;91.82;59.05;;;18.90;56.10;;;;;;4956535;28;90170;-38
2022/04/19 09:07:47;;;;;;;88.30;58.05;;;19.00;56.10;;;;;;4950772;28;91936;-39
2022/04/19 09:10:15;;;;;;;90.32;59.20;;;19.00;56.00;;;;;;4946208;28;89508;-41
2022/04/19 09:12:56;;;;;;;89.20;58.42;;;19.00;56.20;;;;;;4952907;28;90342;-41
2022/04/19 09:15:22;;;;;;;90.22;57.85;;;19.00;56.10;;;;;;4951256;28;89711;-42
2022/04/19 09:17:49;;;;;;;92.05;58.80;;;19.10;56.20;;;;;;4950357;28;91440;-39
2022/04/19 09:20:19;;;;;;;91.18;58.92;;;19.10;55.80;;;;;;4941517;28;92228;-42
2022/04/19 09:22:58;;;;;;;90.43;60.15;;;19.10;56.10;;;;;;4946882;28;92274;-40
2022/04/19 09:25:26;;;;;;;90.68;60.08;;;19.10;55.60;;;;;;4945444;28;90647;-43
2022/04/19 09:27:56;;;;;;;90.82;59.35;;;19.10;55.60;;;;;;4948590;28;89899;-41
2022/04/19 09:30:26;;;;;;;88.40;57.85;;;19.10;55.20;;;;;;4950725;28;89895;-37
2022/04/19 09:33:09;;;;;;;90.50;59.40;;;19.20;55.50;;;;;;4943821;28;90134;-41
2022/04/19 09:35:43;;;;;;;89.78;58.00;;;19.20;55.20;;;;;;4954323;28;89478;-41
2022/04/19 09:38:10;;;;;;;87.68;58.20;;;19.20;55.20;;;;;;4954302;28;90105;-40
2022/04/19 09:40:41;;;;;;;90.35;59.30;;;19.20;55.20;;;;;;4946078;28;90646;-39
2022/04/19 09:43:12;;;;;;;88.88;57.88;;;19.30;54.60;;;;;;4947795;28;90779;-42
2022/04/19 09:45:47;;;;;;;90.38;56.90;;;19.30;54.90;;;;;;4953133;28;90657;-41
2022/04/19 09:48:17;;;;;;;89.03;57.13;;;19.30;54.70;;;;;;4948936;28;89705;-41
2022/04/19 09:50:50;;;;;;;91.43;58.78;;;19.40;54.80;;;;;;4943502;28;90211;-39
2022/04/19 09:53:18;;;;;;;92.13;59.28;;;19.40;54.50;;;;;;4949656;28;90674;-43
2022/04/19 09:55:52;;;;;;;88.95;57.90;;;19.40;54.50;;;;;;4952010;28;90918;-40
2022/04/19 09:58:19;;;;;;;89.45;58.05;;;19.40;54.50;;;;;;4952319;28;90144;-36
2022/04/19 10:00:46;;;;;;;88.78;58.38;;;19.50;54.40;;;;;;4954675;28;90637;-40
2022/04/19 10:08:43;;;;;;;89.40;59.10;;;19.50;54.50;;;;;;4954981;28;91012;-39
2022/04/19 10:11:09;;;;;;;89.63;57.95;;;19.60;54.40;;;;;;4958907;28;89958;-41
2022/04/19 10:13:38;;;;;;;88.50;57.42;;;19.50;54.40;;;;;;4960095;28;89530;-37
2022/04/19 10:16:10;;;;;;;89.00;58.42;;;19.60;54.40;;;;;;4950074;28;95320;-40
2022/04/19 10:18:36;;;;;;;87.78;57.88;;;19.60;54.10;;;;;;4952312;28;91738;-41
2022/04/19 10:21:05;;;;;;;88.18;56.05;;;19.60;54.20;;;;;;4945721;28;92424;-39
2022/04/19 10:23:35;;;;;;;89.03;57.30;;;19.60;54.30;;;;;;4954295;28;89921;-41
2022/04/19 10:26:13;;;;;;;86.43;56.67;;;19.60;54.40;;;;;;4952822;28;89498;-41
2022/04/19 10:28:39;;;;;;;90.70;58.45;;;19.70;54.30;;;;;;4943203;28;91023;-39
2022/04/19 10:31:05;;;;;;;91.22;58.08;;;19.70;54.40;;;;;;4943347;28;90574;-41
2022/04/19 10:33:48;;;;;;;93.13;57.70;;;19.70;54.30;;;;;;4942943;28;91549;-42
2022/04/19 10:36:16;;;;;;;91.95;57.72;;;19.70;54.40;;;;;;4944864;28;90549;-42
2022/04/19 10:38:44;;;;;;;92.70;57.67;;;19.70;54.40;;;;;;4960338;28;91124;-40
2022/04/19 10:41:10;;;;;;;92.32;57.53;;;19.70;54.50;;;;;;4950592;28;93891;-42
2022/04/19 10:43:35;;;;;;;92.53;58.75;;;19.70;54.50;;;;;;4954879;28;89779;-42
2022/04/19 10:46:16;;;;;;;93.90;58.15;;;19.80;54.50;;;;;;4951912;28;89997;-43
2022/04/19 10:49:20;;;;;;;89.75;58.67;;;19.80;54.50;;;;;;4948830;28;91052;-41
2022/04/19 10:51:47;;;;;;;91.57;57.47;;;19.80;54.60;;;;;;4947344;28;89384;-38
2022/04/19 10:54:15;;;;;;;92.30;57.83;;;19.80;54.60;;;;;;4949954;28;90263;-39
2022/04/19 10:58:06;;;;;;;90.95;56.85;;;19.80;55.20;;;;;;4956676;28;90188;-41
2022/04/19 11:00:22;;;;;;;89.28;57.25;;;19.80;54.70;;;;;;4944407;28;90732;-39
2022/04/19 11:03:00;;;;;;;89.10;57.38;;;19.90;54.80;;;;;;4943466;28;91536;-42
2022/04/19 11:05:50;;;;;;;90.13;57.30;;;19.90;54.80;;;;;;4944017;28;89929;-40
2022/04/19 11:08:24;;;;;;;89.13;56.53;;;19.90;54.90;;;;;;4953231;28;89600;-37
2022/04/19 11:10:51;;;;;;;92.15;56.88;;;19.90;55.00;;;;;;4948219;28;89831;-43
2022/04/19 11:13:20;;;;;;;92.60;57.33;;;19.90;55.00;;;;;;4947904;28;90887;-42
2022/04/19 11:15:59;;;;;;;90.43;57.13;;;19.90;55.30;;;;;;4925043;28;89924;-42
2022/04/19 11:18:53;;;;;;;93.60;57.28;;;19.90;55.00;;;;;;4952302;28;88746;-43
2022/04/19 11:21:46;;;;;;;91.60;56.72;;;19.90;55.00;;;;;;4941396;28;89994;-42
2022/04/19 11:24:12;;;;;;;91.35;56.45;;;19.90;54.80;;;;;;4946518;28;90486;-41
2022/04/19 11:26:41;;;;;;;89.10;56.42;;;19.90;54.70;;;;;;4944774;28;90631;-38
2022/04/19 11:29:10;;;;;;;93.72;56.50;;;19.90;54.60;;;;;;4950469;28;91189;-41
2022/04/19 11:31:55;;;;;;;89.60;56.47;;;19.90;54.50;;;;;;4944103;28;90601;-42
2022/04/19 11:34:21;;;;;;;90.25;56.60;;;20.00;54.50;;;;;;4945480;28;90793;-42
2022/04/19 11:36:47;;;;;;;91.38;56.83;;;20.00;54.40;;;;;;4950667;28;90033;-41
2022/04/19 11:46:44;;;;;;;89.80;56.33;;;20.00;54.30;;;;;;4951527;28;90289;-39
2022/04/19 11:47:46;;;;;;;89.78;57.00;;;20.00;54.10;;;;;;4950137;28;89644;-38
2022/04/19 11:50:32;;;;;;;89.75;56.63;;;20.00;54.00;;;;;;4955423;28;89996;-40
2022/04/19 11:52:58;;;;;;;88.65;56.08;;;20.00;54.00;;;;;;4949940;28;93700;-39
2022/04/19 11:55:27;;;;;;;90.13;56.63;;;20.00;53.90;;;;;;4950001;28;90247;-41
2022/04/19 11:58:08;;;;;;;89.80;56.45;;;20.00;53.70;;;;;;4947527;28;90219;-42
2022/04/19 12:00:35;;;;;;;89.70;56.13;;;20.10;53.70;;;;;;4944288;28;89974;-42
2022/04/19 12:03:04;;;;;;;89.57;56.30;;;20.10;53.60;;;;;;4944029;28;93795;-41
2022/04/19 12:05:30;;;;;;;90.32;56.50;;;20.10;53.60;;;;;;4941622;28;94532;-42
2022/04/19 12:07:56;;;;;;;89.28;56.53;;;20.10;53.50;;;;;;4948528;28;89760;-38
2022/04/19 12:10:23;;;;;;;88.80;56.30;;;20.10;53.40;;;;;;4953704;28;89332;-41
2022/04/19 12:12:50;;;;;;;90.53;56.22;;;20.10;53.30;;;;;;4948369;28;91162;-43
2022/04/19 12:15:41;;;;;;;88.57;56.50;;;20.10;53.30;;;;;;4945812;28;90847;-39
2022/04/19 12:18:07;;;;;;;88.35;56.08;;;20.10;53.20;;;;;;4949481;28;90447;-42
2022/04/19 12:20:43;;;;;;;89.07;56.25;;;20.10;53.10;;;;;;4951754;28;90434;-42
2022/04/19 12:23:19;;;;;;;91.00;56.22;;;20.10;53.10;;;;;;4945156;28;90266;-38
2022/04/19 12:26:05;;;;;;;89.07;56.42;;;20.20;53.10;;;;;;4944923;28;90442;-42
2022/04/19 12:28:38;;;;;;;88.30;55.95;;;20.20;53.00;;;;;;4954883;28;90290;-38
2022/04/19 12:31:04;;;;;;;87.70;56.08;;;20.20;52.90;;;;;;4953698;28;90055;-42
2022/04/19 12:33:30;;;;;;;87.13;55.78;;;20.20;52.80;;;;;;4958004;28;89821;-41
2022/04/19 12:35:55;;;;;;;88.25;56.47;;;20.20;52.80;;;;;;4949458;28;92152;-40
2022/04/19 12:38:30;;;;;;;88.72;56.05;;;20.30;52.70;;;;;;4944662;28;91118;-41
2022/04/19 12:40:55;;;;;;;87.72;55.78;;;20.30;52.70;;;;;;4946945;28;90852;-42
2022/04/19 12:43:41;;;;;;;88.55;56.10;;;20.30;52.60;;;;;;4949868;28;91931;-37
2022/04/19 12:46:07;;;;;;;89.10;56.00;;;20.30;52.60;;;;;;4950901;28;90717;-42
2022/04/19 12:48:33;;;;;;;87.60;56.25;;;20.30;52.60;;;;;;4945141;28;89884;-42
2022/04/19 12:51:03;;;;;;;88.45;55.83;;;20.30;52.40;;;;;;4945645;28;89997;-42
2022/04/19 12:53:28;;;;;;;86.78;55.70;;;20.30;52.40;;;;;;4935826;28;90086;-41
2022/04/19 12:55:54;;;;;;;89.32;55.63;;;20.30;52.30;;;;;;4942811;28;90991;-42
2022/04/19 12:58:20;;;;;;;88.75;56.05;;;20.30;52.40;;;;;;4946186;28;90060;-38
2022/04/19 13:00:46;;;;;;;90.03;56.10;;;20.30;52.30;;;;;;4937612;28;92462;-39
2022/04/19 13:03:11;;;;;;;86.50;55.42;;;20.30;52.20;;;;;;4943304;28;91040;-43
2022/04/19 13:13:50;;;;;;;86.45;55.38;;;20.40;52.10;;;;;;4936556;28;90426;-41